sensor_id;sensor_type;location;lat;lon;timestamp;pressure;altitude;pressure_sealevel;temperature;humidity
39613;BME280;25303;48.896;13.342;2022-09-09T00:01:14;92751.28;;;13.88;82.15
39613;BME280;25303;48.896;13.342;2022-09-09T00:04:11;92747.25;;;13.85;82.29
39613;BME280;25303;48.896;13.342;2022-09-09T00:07:01;92742.28;;;13.83;82.28
39613;BME280;25303;48.896;13.342;2022-09-09T00:09:47;92736.13;;;13.70;82.60
39613;BME280;25303;48.896;13.342;2022-09-09T00:12:35;92735.94;;;13.71;82.43
39613;BME280;25303;48.896;13.342;2022-09-09T00:15:22;92733.72;;;13.68;82.41
39613;BME280;25303;48.896;13.342;2022-09-09T00:18:13;92732.91;;;13.67;82.30
39613;BME280;25303;48.896;13.342;2022-09-09T00:21:04;92736.47;;;13.66;82.50
39613;BME280;25303;48.896;13.342;2022-09-09T00:23:51;92743.44;;;13.66;82.55
39613;BME280;25303;48.896;13.342;2022-09-09T00:26:38;92735.03;;;13.64;82.53
39613;BME280;25303;48.896;13.342;2022-09-09T00:29:28;92737.09;;;13.54;83.14
39613;BME280;25303;48.896;13.342;2022-09-09T00:32:18;92732.81;;;13.46;83.18
39613;BME280;25303;48.896;13.342;2022-09-09T00:35:04;92731.31;;;13.51;82.93
39613;BME280;25303;48.896;13.342;2022-09-09T00:38:03;92730.47;;;13.51;82.65
39613;BME280;25303;48.896;13.342;2022-09-09T00:40:50;92726.19;;;13.43;83.26
39613;BME280;25303;48.896;13.342;2022-09-09T00:43:36;92728.66;;;13.36;83.61
39613;BME280;25303;48.896;13.342;2022-09-09T00:46:32;92721.41;;;13.40;83.41
39613;BME280;25303;48.896;13.342;2022-09-09T00:49:29;92721.72;;;13.37;83.68
39613;BME280;25303;48.896;13.342;2022-09-09T00:52:25;92724.22;;;13.30;83.88
39613;BME280;25303;48.896;13.342;2022-09-09T00:55:15;92717.50;;;13.21;83.94
39613;BME280;25303;48.896;13.342;2022-09-09T00:58:00;92715.00;;;13.13;84.33
39613;BME280;25303;48.896;13.342;2022-09-09T01:00:45;92720.31;;;13.11;84.34
39613;BME280;25303;48.896;13.342;2022-09-09T01:03:34;92731.28;;;13.13;84.38
39613;BME280;25303;48.896;13.342;2022-09-09T01:06:22;92729.53;;;13.14;84.23
39613;BME280;25303;48.896;13.342;2022-09-09T01:09:16;92736.13;;;13.16;83.83
39613;BME280;25303;48.896;13.342;2022-09-09T01:12:09;92727.84;;;13.21;83.71
39613;BME280;25303;48.896;13.342;2022-09-09T01:15:01;92729.09;;;13.25;83.76
39613;BME280;25303;48.896;13.342;2022-09-09T01:17:52;92726.59;;;13.32;83.70
39613;BME280;25303;48.896;13.342;2022-09-09T01:20:43;92728.50;;;13.38;83.84
39613;BME280;25303;48.896;13.342;2022-09-09T01:23:45;92726.03;;;13.45;83.69
39613;BME280;25303;48.896;13.342;2022-09-09T01:26:46;92729.69;;;13.50;83.38
39613;BME280;25303;48.896;13.342;2022-09-09T01:29:39;92725.94;;;13.53;83.27
39613;BME280;25303;48.896;13.342;2022-09-09T01:32:41;92731.59;;;13.57;83.28
39613;BME280;25303;48.896;13.342;2022-09-09T01:35:36;92725.25;;;13.59;83.21
39613;BME280;25303;48.896;13.342;2022-09-09T01:38:22;92727.63;;;13.61;82.96
39613;BME280;25303;48.896;13.342;2022-09-09T01:41:07;92728.81;;;13.58;82.51
39613;BME280;25303;48.896;13.342;2022-09-09T01:44:00;92734.75;;;13.59;82.63
39613;BME280;25303;48.896;13.342;2022-09-09T01:46:47;92735.59;;;13.59;82.50
39613;BME280;25303;48.896;13.342;2022-09-09T01:49:32;92729.44;;;13.60;82.54
39613;BME280;25303;48.896;13.342;2022-09-09T01:52:24;92729.25;;;13.62;82.60
39613;BME280;25303;48.896;13.342;2022-09-09T01:55:08;92727.47;;;13.62;82.70
39613;BME280;25303;48.896;13.342;2022-09-09T01:58:00;92726.03;;;13.60;82.42
39613;BME280;25303;48.896;13.342;2022-09-09T02:00:54;92725.78;;;13.55;82.04
39613;BME280;25303;48.896;13.342;2022-09-09T02:03:42;92731.31;;;13.51;82.18
39613;BME280;25303;48.896;13.342;2022-09-09T02:06:35;92732.00;;;13.45;82.07
39613;BME280;25303;48.896;13.342;2022-09-09T02:09:30;92739.50;;;13.40;82.23
39613;BME280;25303;48.896;13.342;2022-09-09T02:12:16;92740.94;;;13.34;82.13
39613;BME280;25303;48.896;13.342;2022-09-09T02:15:12;92746.50;;;13.31;82.62
39613;BME280;25303;48.896;13.342;2022-09-09T02:18:06;92740.84;;;13.28;82.85
39613;BME280;25303;48.896;13.342;2022-09-09T02:20:52;92745.03;;;13.29;82.80
39613;BME280;25303;48.896;13.342;2022-09-09T02:23:36;92742.31;;;13.30;82.86
39613;BME280;25303;48.896;13.342;2022-09-09T02:26:24;92741.31;;;13.31;82.65
39613;BME280;25303;48.896;13.342;2022-09-09T02:29:19;92728.91;;;13.27;82.39
39613;BME280;25303;48.896;13.342;2022-09-09T02:32:07;92730.59;;;13.19;82.70
39613;BME280;25303;48.896;13.342;2022-09-09T02:34:57;92734.06;;;13.12;82.75
39613;BME280;25303;48.896;13.342;2022-09-09T02:37:42;92734.22;;;13.10;82.53
39613;BME280;25303;48.896;13.342;2022-09-09T02:40:29;92735.09;;;13.02;82.76
39613;BME280;25303;48.896;13.342;2022-09-09T02:43:15;92741.59;;;12.98;82.67
39613;BME280;25303;48.896;13.342;2022-09-09T02:46:05;92748.09;;;12.94;82.49
39613;BME280;25303;48.896;13.342;2022-09-09T02:48:59;92745.22;;;12.89;82.88
39613;BME280;25303;48.896;13.342;2022-09-09T02:51:53;92742.19;;;12.85;82.90
39613;BME280;25303;48.896;13.342;2022-09-09T02:54:44;92739.75;;;12.84;82.88
39613;BME280;25303;48.896;13.342;2022-09-09T02:57:30;92749.75;;;12.87;82.97
39613;BME280;25303;48.896;13.342;2022-09-09T03:00:16;92758.13;;;12.89;82.88
39613;BME280;25303;48.896;13.342;2022-09-09T03:03:06;92748.44;;;12.91;82.88
39613;BME280;25303;48.896;13.342;2022-09-09T03:05:51;92749.06;;;12.93;82.75
39613;BME280;25303;48.896;13.342;2022-09-09T03:08:35;92749.84;;;12.94;82.80
39613;BME280;25303;48.896;13.342;2022-09-09T03:11:19;92745.50;;;12.94;82.82
39613;BME280;25303;48.896;13.342;2022-09-09T03:14:02;92749.84;;;12.94;82.75
39613;BME280;25303;48.896;13.342;2022-09-09T03:16:46;92753.41;;;12.92;82.74
39613;BME280;25303;48.896;13.342;2022-09-09T03:19:30;92753.25;;;12.94;82.71
39613;BME280;25303;48.896;13.342;2022-09-09T03:22:14;92751.66;;;12.93;82.55
39613;BME280;25303;48.896;13.342;2022-09-09T03:25:00;92732.19;;;12.82;82.71
39613;BME280;25303;48.896;13.342;2022-09-09T03:27:44;92735.84;;;12.88;82.47
39613;BME280;25303;48.896;13.342;2022-09-09T03:30:28;92733.97;;;12.82;82.64
39613;BME280;25303;48.896;13.342;2022-09-09T03:33:12;92724.44;;;12.82;82.43
39613;BME280;25303;48.896;13.342;2022-09-09T03:35:57;92727.22;;;12.81;82.47
39613;BME280;25303;48.896;13.342;2022-09-09T03:38:40;92723.88;;;12.72;82.67
39613;BME280;25303;48.896;13.342;2022-09-09T03:41:27;92726.97;;;12.67;82.69
39613;BME280;25303;48.896;13.342;2022-09-09T03:44:10;92725.97;;;12.68;82.44
39613;BME280;25303;48.896;13.342;2022-09-09T03:46:55;92721.00;;;12.67;82.46
39613;BME280;25303;48.896;13.342;2022-09-09T03:49:38;92721.69;;;12.60;82.81
39613;BME280;25303;48.896;13.342;2022-09-09T03:52:21;92724.56;;;12.42;83.59
39613;BME280;25303;48.896;13.342;2022-09-09T03:55:08;92718.53;;;12.50;83.18
39613;BME280;25303;48.896;13.342;2022-09-09T03:57:53;92722.72;;;12.51;83.13
39613;BME280;25303;48.896;13.342;2022-09-09T04:00:36;92714.63;;;12.54;82.99
39613;BME280;25303;48.896;13.342;2022-09-09T04:03:27;92712.69;;;12.56;83.21
39613;BME280;25303;48.896;13.342;2022-09-09T04:06:12;92715.53;;;12.61;83.14
39613;BME280;25303;48.896;13.342;2022-09-09T04:09:00;92710.22;;;12.63;83.02
39613;BME280;25303;48.896;13.342;2022-09-09T04:11:45;92710.84;;;12.65;82.95
39613;BME280;25303;48.896;13.342;2022-09-09T04:14:30;92706.47;;;12.66;83.00
39613;BME280;25303;48.896;13.342;2022-09-09T04:17:13;92702.59;;;12.70;82.90
39613;BME280;25303;48.896;13.342;2022-09-09T04:19:56;92698.22;;;12.70;82.73
39613;BME280;25303;48.896;13.342;2022-09-09T04:22:39;92698.22;;;12.70;82.66
39613;BME280;25303;48.896;13.342;2022-09-09T04:25:22;92705.50;;;12.67;82.99
39613;BME280;25303;48.896;13.342;2022-09-09T04:28:05;92697.47;;;12.61;83.17
39613;BME280;25303;48.896;13.342;2022-09-09T04:30:51;92685.81;;;12.66;82.93
39613;BME280;25303;48.896;13.342;2022-09-09T04:33:34;92689.38;;;12.65;83.34
39613;BME280;25303;48.896;13.342;2022-09-09T04:36:22;92703.44;;;12.62;83.24
39613;BME280;25303;48.896;13.342;2022-09-09T04:39:09;92703.16;;;12.57;83.47
39613;BME280;25303;48.896;13.342;2022-09-09T04:41:52;92704.47;;;12.53;83.67
39613;BME280;25303;48.896;13.342;2022-09-09T04:44:36;92704.47;;;12.53;83.58
39613;BME280;25303;48.896;13.342;2022-09-09T04:47:21;92696.38;;;12.56;83.75
39613;BME280;25303;48.896;13.342;2022-09-09T04:50:05;92699.59;;;12.58;83.77
39613;BME280;25303;48.896;13.342;2022-09-09T04:52:49;92700.03;;;12.61;83.83
39613;BME280;25303;48.896;13.342;2022-09-09T04:55:34;92695.34;;;12.65;83.73
39613;BME280;25303;48.896;13.342;2022-09-09T04:58:18;92698.38;;;12.69;83.53
39613;BME280;25303;48.896;13.342;2022-09-09T05:01:06;92690.56;;;12.77;83.25
39613;BME280;25303;48.896;13.342;2022-09-09T05:03:52;92688.97;;;12.76;83.34
39613;BME280;25303;48.896;13.342;2022-09-09T05:06:37;92689.78;;;12.76;83.40
39613;BME280;25303;48.896;13.342;2022-09-09T05:09:20;92704.75;;;12.81;83.08
39613;BME280;25303;48.896;13.342;2022-09-09T05:12:06;92702.97;;;12.82;83.20
39613;BME280;25303;48.896;13.342;2022-09-09T05:14:51;92699.41;;;12.83;83.07
39613;BME280;25303;48.896;13.342;2022-09-09T05:17:34;92706.34;;;12.82;83.18
39613;BME280;25303;48.896;13.342;2022-09-09T05:20:19;92701.63;;;12.86;82.82
39613;BME280;25303;48.896;13.342;2022-09-09T05:23:03;92703.09;;;12.88;82.63
39613;BME280;25303;48.896;13.342;2022-09-09T05:25:55;92709.69;;;12.91;82.69
39613;BME280;25303;48.896;13.342;2022-09-09T05:28:38;92711.28;;;12.92;82.67
39613;BME280;25303;48.896;13.342;2022-09-09T05:31:21;92720.66;;;12.93;82.57
39613;BME280;25303;48.896;13.342;2022-09-09T05:34:06;92716.28;;;12.94;82.66
39613;BME280;25303;48.896;13.342;2022-09-09T05:36:50;92724.31;;;12.99;82.65
39613;BME280;25303;48.896;13.342;2022-09-09T05:39:35;92729.59;;;13.05;82.56
39613;BME280;25303;48.896;13.342;2022-09-09T05:42:19;92721.28;;;13.10;82.65
39613;BME280;25303;48.896;13.342;2022-09-09T05:45:03;92713.03;;;13.15;82.45
39613;BME280;25303;48.896;13.342;2022-09-09T05:47:51;92713.84;;;13.15;82.48
39613;BME280;25303;48.896;13.342;2022-09-09T05:50:34;92717.19;;;13.16;82.50
39613;BME280;25303;48.896;13.342;2022-09-09T05:53:19;92728.19;;;13.18;82.48
39613;BME280;25303;48.896;13.342;2022-09-09T05:56:03;92729.00;;;13.18;82.67
39613;BME280;25303;48.896;13.342;2022-09-09T05:58:49;92726.06;;;13.21;82.61
39613;BME280;25303;48.896;13.342;2022-09-09T06:01:35;92720.72;;;13.23;82.67
39613;BME280;25303;48.896;13.342;2022-09-09T06:04:24;92730.81;;;13.33;82.50
39613;BME280;25303;48.896;13.342;2022-09-09T06:07:07;92734.59;;;13.45;82.74
39613;BME280;25303;48.896;13.342;2022-09-09T06:09:52;92740.41;;;13.62;82.72
39613;BME280;25303;48.896;13.342;2022-09-09T06:12:35;92734.06;;;13.80;82.72
39613;BME280;25303;48.896;13.342;2022-09-09T06:15:18;92736.28;;;13.98;82.34
39613;BME280;25303;48.896;13.342;2022-09-09T06:18:02;92729.94;;;14.16;82.22
39613;BME280;25303;48.896;13.342;2022-09-09T06:20:53;92724.91;;;14.29;81.37
39613;BME280;25303;48.896;13.342;2022-09-09T06:23:39;92722.63;;;14.41;81.16
39613;BME280;25303;48.896;13.342;2022-09-09T06:26:25;92714.56;;;14.51;81.00
39613;BME280;25303;48.896;13.342;2022-09-09T06:29:11;92719.47;;;14.61;80.65
39613;BME280;25303;48.896;13.342;2022-09-09T06:31:56;92714.28;;;14.61;80.30
39613;BME280;25303;48.896;13.342;2022-09-09T06:34:41;92707.72;;;14.65;80.09
39613;BME280;25303;48.896;13.342;2022-09-09T06:37:24;92714.69;;;14.64;79.66
39613;BME280;25303;48.896;13.342;2022-09-09T06:40:09;92720.50;;;14.66;80.18
39613;BME280;25303;48.896;13.342;2022-09-09T06:42:54;92715.97;;;14.68;79.83
39613;BME280;25303;48.896;13.342;2022-09-09T06:45:55;92721.78;;;14.70;79.88
39613;BME280;25303;48.896;13.342;2022-09-09T06:48:38;92723.56;;;14.70;79.29
39613;BME280;25303;48.896;13.342;2022-09-09T06:51:26;92727.94;;;14.69;79.16
39613;BME280;25303;48.896;13.342;2022-09-09T06:54:11;92726.75;;;14.72;78.84
39613;BME280;25303;48.896;13.342;2022-09-09T06:56:58;92733.81;;;14.78;79.29
39613;BME280;25303;48.896;13.342;2022-09-09T07:00:05;92741.44;;;14.86;79.28
39613;BME280;25303;48.896;13.342;2022-09-09T07:02:48;92747.31;;;14.95;78.98
39613;BME280;25303;48.896;13.342;2022-09-09T07:05:33;92746.53;;;14.95;77.90
39613;BME280;25303;48.896;13.342;2022-09-09T07:08:17;92748.13;;;14.96;77.93
39613;BME280;25303;48.896;13.342;2022-09-09T07:11:02;92754.91;;;14.97;78.09
39613;BME280;25303;48.896;13.342;2022-09-09T07:13:53;92760.94;;;15.04;77.85
39613;BME280;25303;48.896;13.342;2022-09-09T07:16:38;92762.56;;;15.05;77.14
39613;BME280;25303;48.896;13.342;2022-09-09T07:19:21;92766.19;;;15.11;77.50
39613;BME280;25303;48.896;13.342;2022-09-09T07:22:07;92779.16;;;15.11;76.82
39613;BME280;25303;48.896;13.342;2022-09-09T07:24:52;92776.38;;;15.12;76.84
39613;BME280;25303;48.896;13.342;2022-09-09T07:27:35;92775.47;;;15.20;77.28
39613;BME280;25303;48.896;13.342;2022-09-09T07:30:19;92768.94;;;15.31;76.97
39613;BME280;25303;48.896;13.342;2022-09-09T07:33:10;92768.81;;;15.39;76.65
39613;BME280;25303;48.896;13.342;2022-09-09T07:35:53;92772.44;;;15.45;76.39
39613;BME280;25303;48.896;13.342;2022-09-09T07:38:39;92777.06;;;15.49;75.93
39613;BME280;25303;48.896;13.342;2022-09-09T07:41:28;92773.13;;;15.54;75.95
39613;BME280;25303;48.896;13.342;2022-09-09T07:44:14;92758.94;;;15.56;75.65
39613;BME280;25303;48.896;13.342;2022-09-09T07:46:59;92762.00;;;15.60;75.64
39613;BME280;25303;48.896;13.342;2022-09-09T07:49:50;92766.81;;;15.63;75.47
39613;BME280;25303;48.896;13.342;2022-09-09T07:52:38;92767.78;;;15.62;75.20
39613;BME280;25303;48.896;13.342;2022-09-09T07:55:22;92768.16;;;15.59;74.73
39613;BME280;25303;48.896;13.342;2022-09-09T07:58:07;92772.50;;;15.52;74.83
39613;BME280;25303;48.896;13.342;2022-09-09T08:00:50;92778.25;;;15.47;74.86
39613;BME280;25303;48.896;13.342;2022-09-09T08:03:34;92789.63;;;15.46;75.25
39613;BME280;25303;48.896;13.342;2022-09-09T08:06:19;92785.66;;;15.50;75.07
39613;BME280;25303;48.896;13.342;2022-09-09T08:09:03;92783.50;;;15.54;75.07
39613;BME280;25303;48.896;13.342;2022-09-09T08:11:47;92788.31;;;15.57;74.99
39613;BME280;25303;48.896;13.342;2022-09-09T08:14:31;92785.72;;;15.57;74.72
39613;BME280;25303;48.896;13.342;2022-09-09T08:17:14;92782.75;;;15.60;75.24
39613;BME280;25303;48.896;13.342;2022-09-09T08:19:58;92775.78;;;15.67;75.42
39613;BME280;25303;48.896;13.342;2022-09-09T08:22:49;92780.25;;;15.73;74.95
39613;BME280;25303;48.896;13.342;2022-09-09T08:25:33;92778.28;;;15.82;75.35
39613;BME280;25303;48.896;13.342;2022-09-09T08:28:17;92783.19;;;15.92;75.03
39613;BME280;25303;48.896;13.342;2022-09-09T08:31:11;92779.25;;;16.03;74.74
39613;BME280;25303;48.896;13.342;2022-09-09T08:33:56;92775.25;;;16.07;73.89
39613;BME280;25303;48.896;13.342;2022-09-09T08:36:43;92787.44;;;16.06;72.97
39613;BME280;25303;48.896;13.342;2022-09-09T08:39:28;92798.25;;;16.10;73.42
39613;BME280;25303;48.896;13.342;2022-09-09T08:42:31;92787.69;;;16.12;73.50
39613;BME280;25303;48.896;13.342;2022-09-09T08:45:25;92779.66;;;16.06;72.69
39613;BME280;25303;48.896;13.342;2022-09-09T08:48:23;92784.44;;;16.03;72.65
39613;BME280;25303;48.896;13.342;2022-09-09T08:51:13;92785.06;;;16.05;73.12
39613;BME280;25303;48.896;13.342;2022-09-09T08:54:00;92789.66;;;16.09;73.44
39613;BME280;25303;48.896;13.342;2022-09-09T08:56:48;92796.31;;;16.19;73.64
39613;BME280;25303;48.896;13.342;2022-09-09T08:59:31;92806.34;;;16.29;73.40
39613;BME280;25303;48.896;13.342;2022-09-09T09:02:18;92804.38;;;16.37;73.47
39613;BME280;25303;48.896;13.342;2022-09-09T09:05:16;92799.63;;;16.48;73.23
39613;BME280;25303;48.896;13.342;2022-09-09T09:08:10;92813.69;;;16.60;73.44
39613;BME280;25303;48.896;13.342;2022-09-09T09:10:57;92808.91;;;16.70;72.98
39613;BME280;25303;48.896;13.342;2022-09-09T09:13:47;92798.75;;;16.76;72.43
39613;BME280;25303;48.896;13.342;2022-09-09T09:16:39;92802.34;;;16.81;72.38
39613;BME280;25303;48.896;13.342;2022-09-09T09:19:27;92792.75;;;16.89;72.24
39613;BME280;25303;48.896;13.342;2022-09-09T09:22:16;92789.16;;;16.90;72.39
39613;BME280;25303;48.896;13.342;2022-09-09T09:25:09;92799.59;;;16.96;72.06
39613;BME280;25303;48.896;13.342;2022-09-09T09:27:58;92792.44;;;17.12;72.26
39613;BME280;25303;48.896;13.342;2022-09-09T09:30:51;92793.69;;;17.36;72.48
39613;BME280;25303;48.896;13.342;2022-09-09T09:33:43;92808.91;;;17.59;71.56
39613;BME280;25303;48.896;13.342;2022-09-09T09:36:34;92808.28;;;17.71;70.40
39613;BME280;25303;48.896;13.342;2022-09-09T09:39:24;92808.50;;;17.76;69.75
39613;BME280;25303;48.896;13.342;2022-09-09T09:42:27;92814.88;;;17.80;68.94
39613;BME280;25303;48.896;13.342;2022-09-09T09:45:27;92814.06;;;17.86;69.31
39613;BME280;25303;48.896;13.342;2022-09-09T09:48:14;92815.06;;;17.92;68.99
39613;BME280;25303;48.896;13.342;2022-09-09T09:50:58;92811.47;;;17.93;68.53
39613;BME280;25303;48.896;13.342;2022-09-09T09:53:45;92811.69;;;17.91;67.99
39613;BME280;25303;48.896;13.342;2022-09-09T09:56:29;92808.84;;;17.93;66.89
39613;BME280;25303;48.896;13.342;2022-09-09T09:59:34;92822.13;;;17.98;67.30
39613;BME280;25303;48.896;13.342;2022-09-09T10:02:37;92816.91;;;18.05;67.52
39613;BME280;25303;48.896;13.342;2022-09-09T10:05:26;92811.28;;;18.08;67.81
39613;BME280;25303;48.896;13.342;2022-09-09T10:08:21;92807.25;;;18.05;67.65
39613;BME280;25303;48.896;13.342;2022-09-09T10:11:18;92812.28;;;18.07;67.66
39613;BME280;25303;48.896;13.342;2022-09-09T10:14:14;92823.09;;;18.11;67.34
39613;BME280;25303;48.896;13.342;2022-09-09T10:17:18;92820.69;;;18.09;67.14
39613;BME280;25303;48.896;13.342;2022-09-09T10:20:28;92813.28;;;18.06;67.08
39613;BME280;25303;48.896;13.342;2022-09-09T10:23:26;92817.28;;;18.09;67.64
39613;BME280;25303;48.896;13.342;2022-09-09T10:26:22;92829.50;;;18.08;67.55
39613;BME280;25303;48.896;13.342;2022-09-09T10:29:24;92829.91;;;18.05;67.65
39613;BME280;25303;48.896;13.342;2022-09-09T10:32:33;92828.28;;;17.97;66.38
39613;BME280;25303;48.896;13.342;2022-09-09T10:35:29;92829.31;;;17.89;66.51
39613;BME280;25303;48.896;13.342;2022-09-09T10:38:17;92832.09;;;17.81;66.79
39613;BME280;25303;48.896;13.342;2022-09-09T10:41:10;92835.31;;;17.76;66.83
39613;BME280;25303;48.896;13.342;2022-09-09T10:44:14;92841.31;;;17.64;66.25
39613;BME280;25303;48.896;13.342;2022-09-09T10:47:14;92839.13;;;17.54;66.95
39613;BME280;25303;48.896;13.342;2022-09-09T10:50:18;92829.28;;;17.42;66.13
39613;BME280;25303;48.896;13.342;2022-09-09T10:53:35;92844.13;;;17.35;66.54
39613;BME280;25303;48.896;13.342;2022-09-09T10:56:21;92841.50;;;17.28;66.87
39613;BME280;25303;48.896;13.342;2022-09-09T10:59:11;92848.28;;;17.23;67.14
39613;BME280;25303;48.896;13.342;2022-09-09T11:01:59;92853.47;;;17.16;66.97
39613;BME280;25303;48.896;13.342;2022-09-09T11:04:49;92855.06;;;17.10;66.75
39613;BME280;25303;48.896;13.342;2022-09-09T11:07:37;92860.25;;;17.04;66.99
39613;BME280;25303;48.896;13.342;2022-09-09T11:10:29;92851.22;;;16.99;67.12
39613;BME280;25303;48.896;13.342;2022-09-09T11:13:20;92853.59;;;16.94;66.94
39613;BME280;25303;48.896;13.342;2022-09-09T11:16:17;92845.38;;;16.91;66.87
39613;BME280;25303;48.896;13.342;2022-09-09T11:19:09;92849.56;;;16.92;67.33
39613;BME280;25303;48.896;13.342;2022-09-09T11:21:55;92844.56;;;16.90;66.97
39613;BME280;25303;48.896;13.342;2022-09-09T11:24:43;92842.16;;;16.89;66.77
39613;BME280;25303;48.896;13.342;2022-09-09T11:27:31;92830.75;;;16.90;67.11
39613;BME280;25303;48.896;13.342;2022-09-09T11:30:20;92826.00;;;16.93;67.27
39613;BME280;25303;48.896;13.342;2022-09-09T11:33:37;92827.22;;;16.97;66.83
39613;BME280;25303;48.896;13.342;2022-09-09T11:36:43;92826.00;;;16.93;66.33
39613;BME280;25303;48.896;13.342;2022-09-09T11:39:59;92826.22;;;16.98;67.01
39613;BME280;25303;48.896;13.342;2022-09-09T11:42:49;92830.63;;;17.05;66.72
39613;BME280;25303;48.896;13.342;2022-09-09T11:45:33;92829.25;;;17.02;66.33
39613;BME280;25303;48.896;13.342;2022-09-09T11:48:27;92824.03;;;17.02;66.71
39613;BME280;25303;48.896;13.342;2022-09-09T11:51:13;92833.44;;;17.03;66.64
39613;BME280;25303;48.896;13.342;2022-09-09T11:53:59;92835.63;;;17.06;67.21
39613;BME280;25303;48.896;13.342;2022-09-09T11:56:43;92830.44;;;17.06;66.40
39613;BME280;25303;48.896;13.342;2022-09-09T11:59:30;92832.25;;;17.06;67.00
39613;BME280;25303;48.896;13.342;2022-09-09T12:02:16;92830.25;;;17.08;66.81
39613;BME280;25303;48.896;13.342;2022-09-09T12:05:05;92828.44;;;17.08;66.27
39613;BME280;25303;48.896;13.342;2022-09-09T12:07:52;92829.06;;;17.10;66.37
39613;BME280;25303;48.896;13.342;2022-09-09T12:10:39;92830.66;;;17.11;66.09
39613;BME280;25303;48.896;13.342;2022-09-09T12:13:24;92834.25;;;17.10;66.22
39613;BME280;25303;48.896;13.342;2022-09-09T12:16:31;92832.84;;;17.08;66.50
39613;BME280;25303;48.896;13.342;2022-09-09T12:19:19;92830.84;;;17.03;66.58
39613;BME280;25303;48.896;13.342;2022-09-09T12:22:13;92829.81;;;16.97;67.21
39613;BME280;25303;48.896;13.342;2022-09-09T12:25:07;92837.44;;;16.99;67.43
39613;BME280;25303;48.896;13.342;2022-09-09T12:28:01;92830.00;;;16.96;67.37
39613;BME280;25303;48.896;13.342;2022-09-09T12:30:54;92835.78;;;16.91;67.23
39613;BME280;25303;48.896;13.342;2022-09-09T12:33:41;92833.16;;;16.84;67.16
39613;BME280;25303;48.896;13.342;2022-09-09T12:36:29;92833.56;;;16.81;68.01
39613;BME280;25303;48.896;13.342;2022-09-09T12:39:19;92838.34;;;16.78;67.91
39613;BME280;25303;48.896;13.342;2022-09-09T12:42:04;92831.94;;;16.74;67.56
39613;BME280;25303;48.896;13.342;2022-09-09T12:44:54;92832.50;;;16.69;67.78
39613;BME280;25303;48.896;13.342;2022-09-09T12:47:40;92827.88;;;16.64;67.74
39613;BME280;25303;48.896;13.342;2022-09-09T12:50:28;92827.28;;;16.62;68.03
39613;BME280;25303;48.896;13.342;2022-09-09T12:53:17;92826.69;;;16.60;67.62
39613;BME280;25303;48.896;13.342;2022-09-09T12:56:07;92819.66;;;16.54;67.40
39613;BME280;25303;48.896;13.342;2022-09-09T12:58:52;92808.03;;;16.50;67.13
39613;BME280;25303;48.896;13.342;2022-09-09T13:01:35;92806.00;;;16.45;67.83
39613;BME280;25303;48.896;13.342;2022-09-09T13:04:20;92804.63;;;16.43;68.00
39613;BME280;25303;48.896;13.342;2022-09-09T13:07:08;92806.41;;;16.42;68.15
39613;BME280;25303;48.896;13.342;2022-09-09T13:09:53;92795.00;;;16.43;68.09
39613;BME280;25303;48.896;13.342;2022-09-09T13:12:36;92795.38;;;16.40;68.45
39613;BME280;25303;48.896;13.342;2022-09-09T13:15:21;92792.78;;;16.33;68.23
39613;BME280;25303;48.896;13.342;2022-09-09T13:18:11;92786.56;;;16.28;68.46
39613;BME280;25303;48.896;13.342;2022-09-09T13:20:56;92782.31;;;16.20;68.11
39613;BME280;25303;48.896;13.342;2022-09-09T13:23:41;92783.69;;;16.16;68.69
39613;BME280;25303;48.896;13.342;2022-09-09T13:26:30;92776.91;;;16.15;68.63
39613;BME280;25303;48.896;13.342;2022-09-09T13:29:18;92773.84;;;16.04;69.12
39613;BME280;25303;48.896;13.342;2022-09-09T13:32:05;92765.84;;;15.99;69.48
39613;BME280;25303;48.896;13.342;2022-09-09T13:34:54;92761.22;;;15.94;69.56
39613;BME280;25303;48.896;13.342;2022-09-09T13:37:38;92763.00;;;15.87;69.71
39613;BME280;25303;48.896;13.342;2022-09-09T13:40:24;92761.38;;;15.86;70.06
39613;BME280;25303;48.896;13.342;2022-09-09T13:43:10;92747.59;;;15.86;70.08
39613;BME280;25303;48.896;13.342;2022-09-09T13:46:01;92749.53;;;15.84;70.45
39613;BME280;25303;48.896;13.342;2022-09-09T13:48:53;92746.63;;;15.93;70.32
39613;BME280;25303;48.896;13.342;2022-09-09T13:51:38;92754.06;;;16.03;69.91
39613;BME280;25303;48.896;13.342;2022-09-09T13:54:21;92758.13;;;16.13;69.96
39613;BME280;25303;48.896;13.342;2022-09-09T13:57:14;92762.78;;;16.24;70.34
39613;BME280;25303;48.896;13.342;2022-09-09T13:59:57;92765.81;;;16.34;69.98
39613;BME280;25303;48.896;13.342;2022-09-09T14:02:48;92755.22;;;16.36;69.46
39613;BME280;25303;48.896;13.342;2022-09-09T14:05:32;92751.63;;;16.37;69.57
39613;BME280;25303;48.896;13.342;2022-09-09T14:08:21;92745.84;;;16.42;69.67
39613;BME280;25303;48.896;13.342;2022-09-09T14:11:05;92742.88;;;16.45;69.23
39613;BME280;25303;48.896;13.342;2022-09-09T14:13:50;92747.47;;;16.43;69.05
39613;BME280;25303;48.896;13.342;2022-09-09T14:16:33;92746.47;;;16.50;69.71
39613;BME280;25303;48.896;13.342;2022-09-09T14:19:15;92748.13;;;16.71;69.77
39613;BME280;25303;48.896;13.342;2022-09-09T14:21:59;92750.16;;;16.90;68.63
39613;BME280;25303;48.896;13.342;2022-09-09T14:24:43;92746.41;;;17.12;68.77
39613;BME280;25303;48.896;13.342;2022-09-09T14:27:26;92747.63;;;17.37;69.07
39613;BME280;25303;48.896;13.342;2022-09-09T14:30:11;92747.59;;;17.77;68.22
39613;BME280;25303;48.896;13.342;2022-09-09T14:32:54;92752.75;;;18.11;66.78
39613;BME280;25303;48.896;13.342;2022-09-09T14:35:37;92750.66;;;18.33;65.87
39613;BME280;25303;48.896;13.342;2022-09-09T14:38:22;92747.50;;;18.24;64.84
39613;BME280;25303;48.896;13.342;2022-09-09T14:41:05;92743.16;;;18.11;65.50